Bryan, Texas
Current Conditions -  °F | °C
As of 7:35 PM on Friday 19 Dec 2014 (Local Time) from KCFD Reporting Station
Overcast Overcast  
Wind Chill: 50°   Ceiling: 600
Heat Index: 50°   Visibility: 7mi
Dew Point: 49°   Wind: 9mph
Humidity: 97%   Direction: 350°N
Pressure: 30.16"   Gusts: NA
Location:  30.67°N, 96.37°W
Report Text: KCFD 200135Z AUTO 35008KT 7SM OVC006 10/10 A3016 RMK AO2 T01000095
Loading
Personal Weather Stations






























Interactive Weather Map New forecast layout! Learn more

10-Day Weather Forecast

Advertisements
Track Severe Weather on mobile